world map with GUA marked

GUA - Airport

This information may not be accurate or current and is not valid for navigation or flight planning. No warranty of fitness for any purpose is made or implied.

flag of Guatemalaflag of Guatemala

Donate via PayPal

Additional information is available on the NEW Great Circle Mapper

Location
City:  Guatemala City, Guatemala, Guatemala
Name:La Aurora International Airport
ICAO / IATA:MGGT / GUA

Details
Type:Airport (Aerodrome, Airfield)
Use:Public/Civil, Military
Latitude:14°35'00"N (14.583272)
Longitude:90°31'39"W (-90.527474)
Datum:WGS 1984
Elevation:4952 ft (1509 m)
Runways:1
Longest:9800 × 196 ft (2987 × 59.5 m)

Time
Timezone:UTC+28:08 (DST+30:08)
Local Time:

Weather
METAR:MGGT  041400Z 04008KT 9999 FEW015 17/13 Q1025 A3027 FEW080
TAF:MGGT  031700Z 0318/0418 03008KT 9999 FEW018 TX26/0320Z TN14/0412Z TEMPO 0318/0402 18008KT SCT020 BECMG 0400/0402 FEW016 TEMPO 0408/0414 8000 SCT012 BECMG 0416/0418 18008KT SCT018= MGPB 031700Z 0318/0418 05008KT 9999 FEW018 TX31/0320Z TN20/0412Z TEMPO 0320/0400 SCT020 BECMG 0400/0402 00000KT CAVOK TEMPO 0408/0414 SCT016 BECMG 0416/1418 05008KT FEW018

Related Locations
Nearby:
Farthest:CCK: 11925 mi / 19192 km
West Island (Pulau Panjang) [Cocos (Keeling) Islands], CC

Find:

   beyond  
but within

Other Information
Maps:
Sources:

  


 


Great Circle Mapper   Great Circle Mapper
Great Circle Mapper FAQ   Great Circle Mapper FAQ
  Karl's Home Page
KLSē   KLSē Home
   GC on Facebook
Airlines of the World   Airlines of the World
Donate via PayPal


Copyright © 2004-2019, Karl L. Swartz. All rights reserved.
All trademarks mentioned herein belong to their respective owners.

Please see credits for attribution and copyright information.

Karl Swartz <karl@kls2.com>
  Powered by FreeBSD
Valid HTML 4.01!
Labeled with ICRA
hCard Microformat
Geo Microformat